Alpha, Minnesota
Current Conditions -  °F | °C
As of 10:13 AM on Monday 22 Dec 2014 (Local Time) from KMJQ Reporting Station
Haze Haze  
Wind Chill: -2°   Ceiling: 200
Heat Index:   Visibility: 5mi
Dew Point:   Wind: 14mph
Humidity: 93%   Direction: 140°SE
Pressure: 29.53"   Gusts: NA
Location:  43.64°N, 94.87°W
Report Text: KMJQ 221613Z AUTO 14012KT 5SM BR OVC002 03/02 A2953 RMK AO2
Loading
Personal Weather Stations






























Interactive Weather Map New forecast layout! Learn more

10-Day Weather Forecast

Advertisements
Track Severe Weather on mobile